sensor_id;sensor_type;location;lat;lon;timestamp;P1;durP1;ratioP1;P2;durP2;ratioP2
51010;SDS011;37038;50.182;8.624;2024-02-21T00:01:26;26.20;;;10.05;;
51010;SDS011;37038;50.182;8.624;2024-02-21T00:04:19;27.25;;;9.93;;
51010;SDS011;37038;50.182;8.624;2024-02-21T00:07:10;25.80;;;10.07;;
51010;SDS011;37038;50.182;8.624;2024-02-21T00:10:00;28.80;;;11.40;;
51010;SDS011;37038;50.182;8.624;2024-02-21T00:12:54;20.25;;;10.32;;
51010;SDS011;37038;50.182;8.624;2024-02-21T00:15:42;30.20;;;10.57;;
51010;SDS011;37038;50.182;8.624;2024-02-21T00:18:30;24.25;;;10.73;;
51010;SDS011;37038;50.182;8.624;2024-02-21T00:21:21;27.70;;;11.15;;
51010;SDS011;37038;50.182;8.624;2024-02-21T00:24:14;31.23;;;10.95;;
51010;SDS011;37038;50.182;8.624;2024-02-21T00:27:02;20.67;;;10.35;;
51010;SDS011;37038;50.182;8.624;2024-02-21T00:29:50;28.20;;;12.10;;
51010;SDS011;37038;50.182;8.624;2024-02-21T00:32:42;34.15;;;12.25;;
51010;SDS011;37038;50.182;8.624;2024-02-21T00:35:33;27.90;;;11.15;;
51010;SDS011;37038;50.182;8.624;2024-02-21T00:38:27;23.20;;;11.52;;
51010;SDS011;37038;50.182;8.624;2024-02-21T00:41:19;29.30;;;11.38;;
51010;SDS011;37038;50.182;8.624;2024-02-21T00:44:07;33.25;;;11.90;;
51010;SDS011;37038;50.182;8.624;2024-02-21T00:47:01;38.03;;;11.73;;
51010;SDS011;37038;50.182;8.624;2024-02-21T00:50:00;30.90;;;11.80;;
51010;SDS011;37038;50.182;8.624;2024-02-21T00:52:56;26.63;;;12.93;;
51010;SDS011;37038;50.182;8.624;2024-02-21T00:55:49;31.38;;;12.45;;
51010;SDS011;37038;50.182;8.624;2024-02-21T00:58:47;29.92;;;12.25;;
51010;SDS011;37038;50.182;8.624;2024-02-21T01:01:44;22.98;;;11.25;;
51010;SDS011;37038;50.182;8.624;2024-02-21T01:04:37;28.02;;;13.27;;
51010;SDS011;37038;50.182;8.624;2024-02-21T01:07:29;29.35;;;12.80;;
51010;SDS011;37038;50.182;8.624;2024-02-21T01:10:20;32.35;;;11.85;;
51010;SDS011;37038;50.182;8.624;2024-02-21T01:13:18;30.88;;;12.70;;
51010;SDS011;37038;50.182;8.624;2024-02-21T01:16:14;36.72;;;13.52;;
51010;SDS011;37038;50.182;8.624;2024-02-21T01:19:04;30.67;;;13.18;;
51010;SDS011;37038;50.182;8.624;2024-02-21T01:22:01;35.47;;;14.70;;
51010;SDS011;37038;50.182;8.624;2024-02-21T01:25:04;35.53;;;14.18;;
51010;SDS011;37038;50.182;8.624;2024-02-21T01:27:57;29.65;;;12.98;;
51010;SDS011;37038;50.182;8.624;2024-02-21T01:30:54;34.17;;;12.65;;
51010;SDS011;37038;50.182;8.624;2024-02-21T01:33:50;27.48;;;12.02;;
51010;SDS011;37038;50.182;8.624;2024-02-21T01:36:45;26.80;;;13.73;;
51010;SDS011;37038;50.182;8.624;2024-02-21T01:39:44;28.75;;;12.70;;
51010;SDS011;37038;50.182;8.624;2024-02-21T01:42:40;26.33;;;12.57;;
51010;SDS011;37038;50.182;8.624;2024-02-21T01:45:39;30.73;;;13.95;;
51010;SDS011;37038;50.182;8.624;2024-02-21T01:48:36;25.17;;;12.40;;
51010;SDS011;37038;50.182;8.624;2024-02-21T01:51:45;30.25;;;12.02;;
51010;SDS011;37038;50.182;8.624;2024-02-21T01:58:34;30.42;;;12.43;;
51010;SDS011;37038;50.182;8.624;2024-02-21T02:01:32;31.80;;;13.63;;
51010;SDS011;37038;50.182;8.624;2024-02-21T02:05:11;26.70;;;12.65;;
51010;SDS011;37038;50.182;8.624;2024-02-21T02:08:30;33.20;;;13.85;;
51010;SDS011;37038;50.182;8.624;2024-02-21T02:12:06;32.05;;;13.48;;
51010;SDS011;37038;50.182;8.624;2024-02-21T02:19:00;29.27;;;12.80;;
51010;SDS011;37038;50.182;8.624;2024-02-21T02:22:15;31.42;;;12.68;;
51010;SDS011;37038;50.182;8.624;2024-02-21T02:25:22;37.05;;;13.18;;
51010;SDS011;37038;50.182;8.624;2024-02-21T02:28:27;26.30;;;10.88;;
51010;SDS011;37038;50.182;8.624;2024-02-21T02:31:55;29.10;;;13.23;;
51010;SDS011;37038;50.182;8.624;2024-02-21T02:34:59;28.40;;;10.77;;
51010;SDS011;37038;50.182;8.624;2024-02-21T02:42:04;23.10;;;11.65;;
51010;SDS011;37038;50.182;8.624;2024-02-21T02:45:11;29.50;;;12.70;;
51010;SDS011;37038;50.182;8.624;2024-02-21T02:48:30;24.95;;;11.38;;
51010;SDS011;37038;50.182;8.624;2024-02-21T02:51:24;24.42;;;11.77;;
51010;SDS011;37038;50.182;8.624;2024-02-21T02:54:15;31.77;;;11.98;;
51010;SDS011;37038;50.182;8.624;2024-02-21T02:57:11;24.15;;;11.10;;
51010;SDS011;37038;50.182;8.624;2024-02-21T03:00:14;26.30;;;12.60;;
51010;SDS011;37038;50.182;8.624;2024-02-21T03:03:11;28.25;;;12.30;;
51010;SDS011;37038;50.182;8.624;2024-02-21T03:06:05;36.10;;;12.82;;
51010;SDS011;37038;50.182;8.624;2024-02-21T03:11:53;29.85;;;12.05;;
51010;SDS011;37038;50.182;8.624;2024-02-21T03:14:48;24.35;;;11.70;;
51010;SDS011;37038;50.182;8.624;2024-02-21T03:17:40;24.13;;;10.90;;
51010;SDS011;37038;50.182;8.624;2024-02-21T03:20:31;22.85;;;12.25;;
51010;SDS011;37038;50.182;8.624;2024-02-21T03:23:22;31.30;;;11.52;;
51010;SDS011;37038;50.182;8.624;2024-02-21T03:26:12;24.50;;;12.07;;
51010;SDS011;37038;50.182;8.624;2024-02-21T03:29:05;26.05;;;12.68;;
51010;SDS011;37038;50.182;8.624;2024-02-21T03:31:58;28.08;;;12.60;;
51010;SDS011;37038;50.182;8.624;2024-02-21T03:34:49;22.23;;;11.88;;
51010;SDS011;37038;50.182;8.624;2024-02-21T03:37:45;33.85;;;12.40;;
51010;SDS011;37038;50.182;8.624;2024-02-21T03:40:37;35.10;;;12.53;;
51010;SDS011;37038;50.182;8.624;2024-02-21T03:43:26;32.53;;;12.02;;
51010;SDS011;37038;50.182;8.624;2024-02-21T03:46:14;27.05;;;12.48;;
51010;SDS011;37038;50.182;8.624;2024-02-21T03:49:08;29.52;;;10.95;;
51010;SDS011;37038;50.182;8.624;2024-02-21T03:52:06;20.83;;;10.60;;
51010;SDS011;37038;50.182;8.624;2024-02-21T03:54:55;29.67;;;13.32;;
51010;SDS011;37038;50.182;8.624;2024-02-21T03:57:47;21.10;;;10.75;;
51010;SDS011;37038;50.182;8.624;2024-02-21T04:00:46;26.27;;;10.77;;
51010;SDS011;37038;50.182;8.624;2024-02-21T04:03:41;31.48;;;12.25;;
51010;SDS011;37038;50.182;8.624;2024-02-21T04:06:36;27.98;;;11.32;;
51010;SDS011;37038;50.182;8.624;2024-02-21T04:09:46;24.23;;;11.32;;
51010;SDS011;37038;50.182;8.624;2024-02-21T04:12:37;25.23;;;11.95;;
51010;SDS011;37038;50.182;8.624;2024-02-21T04:15:28;27.27;;;12.35;;
51010;SDS011;37038;50.182;8.624;2024-02-21T04:18:43;28.60;;;12.95;;
51010;SDS011;37038;50.182;8.624;2024-02-21T04:21:50;26.50;;;12.23;;
51010;SDS011;37038;50.182;8.624;2024-02-21T04:25:06;29.70;;;13.48;;
51010;SDS011;37038;50.182;8.624;2024-02-21T04:28:11;26.80;;;12.93;;
51010;SDS011;37038;50.182;8.624;2024-02-21T04:31:02;28.17;;;14.05;;
51010;SDS011;37038;50.182;8.624;2024-02-21T04:34:06;29.00;;;12.07;;
51010;SDS011;37038;50.182;8.624;2024-02-21T04:37:16;22.58;;;12.23;;
51010;SDS011;37038;50.182;8.624;2024-02-21T04:40:21;25.15;;;11.77;;
51010;SDS011;37038;50.182;8.624;2024-02-21T04:43:36;29.67;;;12.75;;
51010;SDS011;37038;50.182;8.624;2024-02-21T04:47:02;28.50;;;11.43;;
51010;SDS011;37038;50.182;8.624;2024-02-21T04:50:09;28.88;;;11.88;;
51010;SDS011;37038;50.182;8.624;2024-02-21T04:53:11;24.70;;;13.18;;
51010;SDS011;37038;50.182;8.624;2024-02-21T04:56:17;26.35;;;12.88;;
51010;SDS011;37038;50.182;8.624;2024-02-21T04:59:45;27.23;;;14.05;;
51010;SDS011;37038;50.182;8.624;2024-02-21T05:06:25;27.58;;;12.30;;
51010;SDS011;37038;50.182;8.624;2024-02-21T05:09:48;28.60;;;13.57;;
51010;SDS011;37038;50.182;8.624;2024-02-21T05:13:02;31.33;;;13.35;;
51010;SDS011;37038;50.182;8.624;2024-02-21T05:16:35;28.30;;;13.40;;
51010;SDS011;37038;50.182;8.624;2024-02-21T05:19:59;32.53;;;15.07;;
51010;SDS011;37038;50.182;8.624;2024-02-21T05:23:36;27.70;;;14.30;;
51010;SDS011;37038;50.182;8.624;2024-02-21T05:26:47;24.83;;;11.98;;
51010;SDS011;37038;50.182;8.624;2024-02-21T05:29:52;27.55;;;13.55;;
51010;SDS011;37038;50.182;8.624;2024-02-21T05:33:08;29.55;;;14.77;;
51010;SDS011;37038;50.182;8.624;2024-02-21T05:36:29;25.63;;;14.20;;
51010;SDS011;37038;50.182;8.624;2024-02-21T05:40:06;30.98;;;13.60;;
51010;SDS011;37038;50.182;8.624;2024-02-21T05:47:30;24.88;;;12.55;;
51010;SDS011;37038;50.182;8.624;2024-02-21T05:54:52;32.40;;;13.30;;
51010;SDS011;37038;50.182;8.624;2024-02-21T05:58:45;28.60;;;12.30;;
51010;SDS011;37038;50.182;8.624;2024-02-21T06:02:35;26.25;;;12.57;;
51010;SDS011;37038;50.182;8.624;2024-02-21T06:06:08;24.05;;;12.27;;
51010;SDS011;37038;50.182;8.624;2024-02-21T06:09:30;21.88;;;11.55;;
51010;SDS011;37038;50.182;8.624;2024-02-21T07:20:48;24.17;;;12.25;;
51010;SDS011;37038;50.182;8.624;2024-02-21T07:28:39;22.17;;;13.30;;
51010;SDS011;37038;50.182;8.624;2024-02-21T09:59:45;18.98;;;9.07;;
51010;SDS011;37038;50.182;8.624;2024-02-21T11:00:21;14.80;;;6.85;;
51010;SDS011;37038;50.182;8.624;2024-02-21T11:03:55;13.82;;;5.80;;
51010;SDS011;37038;50.182;8.624;2024-02-21T11:07:03;10.82;;;5.65;;
51010;SDS011;37038;50.182;8.624;2024-02-21T11:10:24;14.07;;;5.97;;
51010;SDS011;37038;50.182;8.624;2024-02-21T11:13:40;17.58;;;6.72;;
51010;SDS011;37038;50.182;8.624;2024-02-21T11:20:37;13.95;;;5.88;;
51010;SDS011;37038;50.182;8.624;2024-02-21T11:24:35;13.25;;;5.80;;
51010;SDS011;37038;50.182;8.624;2024-02-21T11:27:35;12.55;;;5.25;;
51010;SDS011;37038;50.182;8.624;2024-02-21T11:30:30;12.43;;;5.50;;
51010;SDS011;37038;50.182;8.624;2024-02-21T11:37:24;11.63;;;5.78;;
51010;SDS011;37038;50.182;8.624;2024-02-21T11:45:06;13.88;;;5.97;;
51010;SDS011;37038;50.182;8.624;2024-02-21T13:14:57;11.15;;;5.47;;
51010;SDS011;37038;50.182;8.624;2024-02-21T13:18:27;10.10;;;5.17;;
51010;SDS011;37038;50.182;8.624;2024-02-21T13:45:24;11.73;;;5.35;;
51010;SDS011;37038;50.182;8.624;2024-02-21T13:49:36;11.10;;;5.05;;
51010;SDS011;37038;50.182;8.624;2024-02-21T13:52:39;7.97;;;4.20;;
51010;SDS011;37038;50.182;8.624;2024-02-21T13:55:37;10.27;;;5.25;;
51010;SDS011;37038;50.182;8.624;2024-02-21T13:58:28;11.73;;;4.45;;
51010;SDS011;37038;50.182;8.624;2024-02-21T14:01:24;13.57;;;4.65;;
51010;SDS011;37038;50.182;8.624;2024-02-21T14:08:31;9.57;;;4.53;;
51010;SDS011;37038;50.182;8.624;2024-02-21T14:11:31;13.57;;;4.38;;
51010;SDS011;37038;50.182;8.624;2024-02-21T14:14:52;18.10;;;4.85;;
51010;SDS011;37038;50.182;8.624;2024-02-21T14:18:21;11.60;;;4.72;;
51010;SDS011;37038;50.182;8.624;2024-02-21T14:21:22;11.02;;;4.13;;
51010;SDS011;37038;50.182;8.624;2024-02-21T14:28:03;15.95;;;5.05;;
51010;SDS011;37038;50.182;8.624;2024-02-21T14:31:19;15.65;;;4.60;;
51010;SDS011;37038;50.182;8.624;2024-02-21T14:34:15;13.55;;;4.05;;
51010;SDS011;37038;50.182;8.624;2024-02-21T14:37:23;8.80;;;4.07;;
51010;SDS011;37038;50.182;8.624;2024-02-21T14:40:52;9.60;;;3.30;;
51010;SDS011;37038;50.182;8.624;2024-02-21T14:43:57;9.90;;;4.88;;
51010;SDS011;37038;50.182;8.624;2024-02-21T14:47:11;11.43;;;4.18;;
51010;SDS011;37038;50.182;8.624;2024-02-21T14:50:16;8.43;;;3.60;;
51010;SDS011;37038;50.182;8.624;2024-02-21T14:53:20;12.07;;;4.07;;
51010;SDS011;37038;50.182;8.624;2024-02-21T14:56:26;10.40;;;3.50;;
51010;SDS011;37038;50.182;8.624;2024-02-21T14:59:39;9.65;;;3.95;;
51010;SDS011;37038;50.182;8.624;2024-02-21T15:03:19;7.57;;;3.47;;
51010;SDS011;37038;50.182;8.624;2024-02-21T15:09:41;12.68;;;4.20;;
51010;SDS011;37038;50.182;8.624;2024-02-21T15:12:39;10.30;;;4.60;;
51010;SDS011;37038;50.182;8.624;2024-02-21T15:15:44;12.88;;;4.03;;
51010;SDS011;37038;50.182;8.624;2024-02-21T15:18:56;11.05;;;3.55;;
51010;SDS011;37038;50.182;8.624;2024-02-21T15:22:39;9.73;;;3.55;;
51010;SDS011;37038;50.182;8.624;2024-02-21T15:25:44;11.55;;;4.57;;
51010;SDS011;37038;50.182;8.624;2024-02-21T15:28:45;17.45;;;4.32;;
51010;SDS011;37038;50.182;8.624;2024-02-21T15:31:50;17.50;;;4.97;;
51010;SDS011;37038;50.182;8.624;2024-02-21T15:35:00;13.27;;;4.53;;
51010;SDS011;37038;50.182;8.624;2024-02-21T15:38:45;13.98;;;4.68;;
51010;SDS011;37038;50.182;8.624;2024-02-21T15:42:14;14.57;;;4.65;;
51010;SDS011;37038;50.182;8.624;2024-02-21T15:45:28;12.20;;;4.70;;
51010;SDS011;37038;50.182;8.624;2024-02-21T15:48:50;9.68;;;4.43;;
51010;SDS011;37038;50.182;8.624;2024-02-21T15:52:05;12.68;;;5.05;;
51010;SDS011;37038;50.182;8.624;2024-02-21T15:55:12;16.45;;;4.43;;
51010;SDS011;37038;50.182;8.624;2024-02-21T16:02:17;10.82;;;4.72;;
51010;SDS011;37038;50.182;8.624;2024-02-21T16:05:33;17.65;;;4.90;;
51010;SDS011;37038;50.182;8.624;2024-02-21T16:08:45;14.32;;;5.30;;
51010;SDS011;37038;50.182;8.624;2024-02-21T16:12:34;15.18;;;5.03;;
51010;SDS011;37038;50.182;8.624;2024-02-21T16:15:51;13.38;;;5.28;;
51010;SDS011;37038;50.182;8.624;2024-02-21T16:18:55;12.85;;;5.10;;
51010;SDS011;37038;50.182;8.624;2024-02-21T16:22:16;12.15;;;4.97;;
51010;SDS011;37038;50.182;8.624;2024-02-21T16:25:19;14.07;;;6.07;;
51010;SDS011;37038;50.182;8.624;2024-02-21T16:28:46;12.77;;;5.20;;
51010;SDS011;37038;50.182;8.624;2024-02-21T16:34:47;17.75;;;6.03;;
51010;SDS011;37038;50.182;8.624;2024-02-21T16:37:52;10.38;;;4.97;;
51010;SDS011;37038;50.182;8.624;2024-02-21T16:41:22;11.05;;;5.38;;
51010;SDS011;37038;50.182;8.624;2024-02-21T16:44:26;13.65;;;5.10;;
51010;SDS011;37038;50.182;8.624;2024-02-21T16:47:44;12.45;;;5.82;;
51010;SDS011;37038;50.182;8.624;2024-02-21T16:50:57;14.75;;;5.10;;
51010;SDS011;37038;50.182;8.624;2024-02-21T16:54:09;14.95;;;5.97;;
51010;SDS011;37038;50.182;8.624;2024-02-21T16:57:39;18.27;;;5.70;;
51010;SDS011;37038;50.182;8.624;2024-02-21T17:00:48;12.68;;;5.15;;
51010;SDS011;37038;50.182;8.624;2024-02-21T17:06:46;12.93;;;5.63;;
51010;SDS011;37038;50.182;8.624;2024-02-21T17:10:25;14.60;;;5.70;;
51010;SDS011;37038;50.182;8.624;2024-02-21T17:13:24;14.10;;;5.72;;
51010;SDS011;37038;50.182;8.624;2024-02-21T17:16:27;19.73;;;6.07;;
51010;SDS011;37038;50.182;8.624;2024-02-21T17:19:21;11.98;;;5.35;;
51010;SDS011;37038;50.182;8.624;2024-02-21T17:22:32;14.05;;;5.82;;
51010;SDS011;37038;50.182;8.624;2024-02-21T17:26:17;15.90;;;5.65;;
51010;SDS011;37038;50.182;8.624;2024-02-21T17:29:25;13.27;;;5.18;;
51010;SDS011;37038;50.182;8.624;2024-02-21T17:32:55;10.43;;;5.18;;
51010;SDS011;37038;50.182;8.624;2024-02-21T17:36:28;12.48;;;4.95;;
51010;SDS011;37038;50.182;8.624;2024-02-21T17:39:36;10.20;;;4.88;;
51010;SDS011;37038;50.182;8.624;2024-02-21T17:43:23;10.70;;;5.78;;
51010;SDS011;37038;50.182;8.624;2024-02-21T17:46:49;13.02;;;5.05;;
51010;SDS011;37038;50.182;8.624;2024-02-21T17:49:56;14.13;;;5.45;;
51010;SDS011;37038;50.182;8.624;2024-02-21T17:55:56;12.50;;;5.60;;
51010;SDS011;37038;50.182;8.624;2024-02-21T17:59:15;9.30;;;4.65;;
51010;SDS011;37038;50.182;8.624;2024-02-21T18:02:46;19.48;;;5.53;;
51010;SDS011;37038;50.182;8.624;2024-02-21T18:05:37;11.52;;;4.93;;
51010;SDS011;37038;50.182;8.624;2024-02-21T18:08:34;12.75;;;5.57;;
51010;SDS011;37038;50.182;8.624;2024-02-21T18:11:24;10.40;;;4.53;;
51010;SDS011;37038;50.182;8.624;2024-02-21T18:14:19;11.20;;;4.22;;
51010;SDS011;37038;50.182;8.624;2024-02-21T18:17:11;15.70;;;5.60;;
51010;SDS011;37038;50.182;8.624;2024-02-21T18:20:11;10.88;;;5.38;;
51010;SDS011;37038;50.182;8.624;2024-02-21T18:23:01;10.20;;;4.78;;
51010;SDS011;37038;50.182;8.624;2024-02-21T18:25:54;18.00;;;5.60;;
51010;SDS011;37038;50.182;8.624;2024-02-21T18:28:43;9.82;;;5.15;;
51010;SDS011;37038;50.182;8.624;2024-02-21T18:31:31;12.60;;;5.35;;
51010;SDS011;37038;50.182;8.624;2024-02-21T18:34:25;10.07;;;5.18;;
51010;SDS011;37038;50.182;8.624;2024-02-21T18:37:21;11.63;;;5.40;;
51010;SDS011;37038;50.182;8.624;2024-02-21T18:40:11;12.60;;;4.85;;
51010;SDS011;37038;50.182;8.624;2024-02-21T18:43:04;11.57;;;4.32;;
51010;SDS011;37038;50.182;8.624;2024-02-21T18:45:54;12.82;;;4.72;;
51010;SDS011;37038;50.182;8.624;2024-02-21T18:49:01;8.88;;;4.70;;
51010;SDS011;37038;50.182;8.624;2024-02-21T18:51:56;6.20;;;3.70;;
51010;SDS011;37038;50.182;8.624;2024-02-21T18:54:57;12.57;;;4.97;;
51010;SDS011;37038;50.182;8.624;2024-02-21T18:57:58;11.23;;;4.68;;
51010;SDS011;37038;50.182;8.624;2024-02-21T19:00:48;10.70;;;4.55;;
51010;SDS011;37038;50.182;8.624;2024-02-21T19:03:42;16.88;;;4.82;;
51010;SDS011;37038;50.182;8.624;2024-02-21T19:06:41;15.10;;;4.88;;
51010;SDS011;37038;50.182;8.624;2024-02-21T19:09:36;10.40;;;4.57;;
51010;SDS011;37038;50.182;8.624;2024-02-21T19:12:41;8.30;;;4.10;;
51010;SDS011;37038;50.182;8.624;2024-02-21T19:15:37;13.35;;;4.03;;
51010;SDS011;37038;50.182;8.624;2024-02-21T19:18:35;11.68;;;4.75;;
51010;SDS011;37038;50.182;8.624;2024-02-21T19:21:36;9.20;;;4.78;;
51010;SDS011;37038;50.182;8.624;2024-02-21T19:24:27;12.43;;;3.97;;
51010;SDS011;37038;50.182;8.624;2024-02-21T19:27:25;11.77;;;5.35;;
51010;SDS011;37038;50.182;8.624;2024-02-21T19:30:19;13.68;;;4.72;;
51010;SDS011;37038;50.182;8.624;2024-02-21T19:33:13;10.93;;;4.40;;
51010;SDS011;37038;50.182;8.624;2024-02-21T19:36:15;12.07;;;5.15;;
51010;SDS011;37038;50.182;8.624;2024-02-21T19:39:30;10.40;;;4.93;;
51010;SDS011;37038;50.182;8.624;2024-02-21T19:42:27;12.35;;;4.85;;
51010;SDS011;37038;50.182;8.624;2024-02-21T19:48:46;11.70;;;5.60;;
51010;SDS011;37038;50.182;8.624;2024-02-21T19:51:45;9.10;;;5.80;;
51010;SDS011;37038;50.182;8.624;2024-02-21T19:54:34;13.25;;;5.90;;
51010;SDS011;37038;50.182;8.624;2024-02-21T19:57:22;10.13;;;5.72;;
51010;SDS011;37038;50.182;8.624;2024-02-21T20:00:14;16.60;;;6.53;;
51010;SDS011;37038;50.182;8.624;2024-02-21T20:03:02;9.25;;;5.40;;
51010;SDS011;37038;50.182;8.624;2024-02-21T20:05:51;12.85;;;5.18;;
51010;SDS011;37038;50.182;8.624;2024-02-21T20:09:06;10.77;;;5.95;;
51010;SDS011;37038;50.182;8.624;2024-02-21T20:11:55;12.73;;;5.80;;
51010;SDS011;37038;50.182;8.624;2024-02-21T20:14:46;13.55;;;6.20;;
51010;SDS011;37038;50.182;8.624;2024-02-21T20:17:40;12.05;;;6.47;;
51010;SDS011;37038;50.182;8.624;2024-02-21T20:20:31;10.75;;;6.00;;
51010;SDS011;37038;50.182;8.624;2024-02-21T20:23:22;15.65;;;8.50;;
51010;SDS011;37038;50.182;8.624;2024-02-21T20:26:10;14.05;;;6.88;;
51010;SDS011;37038;50.182;8.624;2024-02-21T20:29:02;15.57;;;7.80;;
51010;SDS011;37038;50.182;8.624;2024-02-21T20:31:52;16.98;;;7.68;;
51010;SDS011;37038;50.182;8.624;2024-02-21T20:34:42;11.32;;;7.15;;
51010;SDS011;37038;50.182;8.624;2024-02-21T20:37:37;16.85;;;7.55;;
51010;SDS011;37038;50.182;8.624;2024-02-21T20:40:27;18.00;;;8.05;;
51010;SDS011;37038;50.182;8.624;2024-02-21T20:43:15;18.85;;;8.73;;
51010;SDS011;37038;50.182;8.624;2024-02-21T20:46:06;13.68;;;8.57;;
51010;SDS011;37038;50.182;8.624;2024-02-21T20:48:59;14.25;;;8.82;;
51010;SDS011;37038;50.182;8.624;2024-02-21T20:52:02;14.70;;;8.45;;
51010;SDS011;37038;50.182;8.624;2024-02-21T20:54:53;22.63;;;9.27;;
51010;SDS011;37038;50.182;8.624;2024-02-21T20:57:41;21.88;;;8.90;;
51010;SDS011;37038;50.182;8.624;2024-02-21T21:00:31;14.65;;;9.45;;
51010;SDS011;37038;50.182;8.624;2024-02-21T21:03:30;19.08;;;9.18;;
51010;SDS011;37038;50.182;8.624;2024-02-21T21:06:20;19.33;;;10.63;;
51010;SDS011;37038;50.182;8.624;2024-02-21T21:09:08;16.65;;;9.18;;
51010;SDS011;37038;50.182;8.624;2024-02-21T21:12:34;21.58;;;10.32;;
51010;SDS011;37038;50.182;8.624;2024-02-21T21:15:23;13.25;;;8.75;;
51010;SDS011;37038;50.182;8.624;2024-02-21T21:18:31;17.95;;;9.43;;
51010;SDS011;37038;50.182;8.624;2024-02-21T21:21:25;13.70;;;9.07;;
51010;SDS011;37038;50.182;8.624;2024-02-21T21:24:14;20.83;;;10.98;;
51010;SDS011;37038;50.182;8.624;2024-02-21T21:27:08;20.52;;;10.30;;
51010;SDS011;37038;50.182;8.624;2024-02-21T21:29:56;21.52;;;9.90;;
51010;SDS011;37038;50.182;8.624;2024-02-21T21:32:46;21.33;;;10.02;;
51010;SDS011;37038;50.182;8.624;2024-02-21T21:35:42;18.67;;;9.95;;
51010;SDS011;37038;50.182;8.624;2024-02-21T21:38:44;17.27;;;9.13;;
51010;SDS011;37038;50.182;8.624;2024-02-21T21:41:36;15.00;;;8.80;;
51010;SDS011;37038;50.182;8.624;2024-02-21T21:44:27;20.08;;;10.07;;
51010;SDS011;37038;50.182;8.624;2024-02-21T21:47:24;15.80;;;10.25;;
51010;SDS011;37038;50.182;8.624;2024-02-21T21:50:28;18.50;;;10.00;;
51010;SDS011;37038;50.182;8.624;2024-02-21T21:53:23;20.58;;;10.73;;
51010;SDS011;37038;50.182;8.624;2024-02-21T21:56:16;17.63;;;11.00;;
51010;SDS011;37038;50.182;8.624;2024-02-21T21:59:10;23.00;;;11.30;;
51010;SDS011;37038;50.182;8.624;2024-02-21T22:02:00;21.02;;;11.48;;
51010;SDS011;37038;50.182;8.624;2024-02-21T22:04:52;21.25;;;11.95;;
51010;SDS011;37038;50.182;8.624;2024-02-21T22:07:40;15.55;;;10.27;;
51010;SDS011;37038;50.182;8.624;2024-02-21T22:10:34;18.50;;;12.20;;
51010;SDS011;37038;50.182;8.624;2024-02-21T22:13:29;20.92;;;11.27;;
51010;SDS011;37038;50.182;8.624;2024-02-21T22:16:18;15.05;;;11.93;;
51010;SDS011;37038;50.182;8.624;2024-02-21T22:19:06;21.15;;;12.45;;
51010;SDS011;37038;50.182;8.624;2024-02-21T22:21:54;17.23;;;12.00;;
51010;SDS011;37038;50.182;8.624;2024-02-21T22:24:42;21.15;;;12.55;;
51010;SDS011;37038;50.182;8.624;2024-02-21T22:27:31;25.88;;;14.38;;
51010;SDS011;37038;50.182;8.624;2024-02-21T22:30:20;19.75;;;13.63;;
51010;SDS011;37038;50.182;8.624;2024-02-21T22:36:06;24.75;;;14.77;;
51010;SDS011;37038;50.182;8.624;2024-02-21T22:39:07;26.30;;;14.50;;
51010;SDS011;37038;50.182;8.624;2024-02-21T22:42:00;26.27;;;14.20;;
51010;SDS011;37038;50.182;8.624;2024-02-21T22:44:50;31.63;;;15.07;;
51010;SDS011;37038;50.182;8.624;2024-02-21T22:47:39;29.00;;;14.38;;
51010;SDS011;37038;50.182;8.624;2024-02-21T22:50:27;24.65;;;14.02;;
51010;SDS011;37038;50.182;8.624;2024-02-21T22:53:16;25.85;;;14.55;;
51010;SDS011;37038;50.182;8.624;2024-02-21T22:56:11;31.83;;;15.38;;
51010;SDS011;37038;50.182;8.624;2024-02-21T22:59:01;21.83;;;13.55;;
51010;SDS011;37038;50.182;8.624;2024-02-21T23:01:54;27.70;;;14.50;;
51010;SDS011;37038;50.182;8.624;2024-02-21T23:05:06;22.35;;;13.57;;
51010;SDS011;37038;50.182;8.624;2024-02-21T23:08:07;19.55;;;10.43;;
51010;SDS011;37038;50.182;8.624;2024-02-21T23:11:02;14.70;;;9.68;;
51010;SDS011;37038;50.182;8.624;2024-02-21T23:13:58;15.32;;;10.52;;
51010;SDS011;37038;50.182;8.624;2024-02-21T23:16:48;13.90;;;9.52;;
51010;SDS011;37038;50.182;8.624;2024-02-21T23:19:36;16.05;;;8.85;;
51010;SDS011;37038;50.182;8.624;2024-02-21T23:22:27;15.38;;;8.70;;
51010;SDS011;37038;50.182;8.624;2024-02-21T23:25:15;14.27;;;9.00;;
51010;SDS011;37038;50.182;8.624;2024-02-21T23:28:03;12.68;;;8.23;;
51010;SDS011;37038;50.182;8.624;2024-02-21T23:30:52;18.25;;;8.35;;
51010;SDS011;37038;50.182;8.624;2024-02-21T23:33:40;13.75;;;8.68;;
51010;SDS011;37038;50.182;8.624;2024-02-21T23:36:29;14.43;;;8.18;;
51010;SDS011;37038;50.182;8.624;2024-02-21T23:39:19;13.85;;;8.57;;
51010;SDS011;37038;50.182;8.624;2024-02-21T23:42:10;11.88;;;8.15;;
51010;SDS011;37038;50.182;8.624;2024-02-21T23:44:58;18.70;;;8.27;;
51010;SDS011;37038;50.182;8.624;2024-02-21T23:47:46;13.38;;;8.38;;
51010;SDS011;37038;50.182;8.624;2024-02-21T23:50:34;11.18;;;8.02;;
51010;SDS011;37038;50.182;8.624;2024-02-21T23:53:23;10.80;;;8.15;;
51010;SDS011;37038;50.182;8.624;2024-02-21T23:56:14;11.63;;;9.45;;
51010;SDS011;37038;50.182;8.624;2024-02-21T23:59:14;12.05;;;8.15;;
